sensor_id;sensor_type;location;lat;lon;timestamp;P1;durP1;ratioP1;P2;durP2;ratioP2
8986;SDS011;4529;51.360;12.474;2023-02-14T00:03:42;18.03;;;10.57;;
8986;SDS011;4529;51.360;12.474;2023-02-14T00:08:46;16.37;;;10.47;;
8986;SDS011;4529;51.360;12.474;2023-02-14T00:13:49;17.30;;;10.37;;
8986;SDS011;4529;51.360;12.474;2023-02-14T00:18:53;17.10;;;10.23;;
8986;SDS011;4529;51.360;12.474;2023-02-14T00:23:57;17.50;;;11.13;;
8986;SDS011;4529;51.360;12.474;2023-02-14T00:29:01;19.13;;;11.93;;
8986;SDS011;4529;51.360;12.474;2023-02-14T00:34:06;20.47;;;12.07;;
8986;SDS011;4529;51.360;12.474;2023-02-14T00:39:10;17.43;;;11.47;;
8986;SDS011;4529;51.360;12.474;2023-02-14T00:44:13;20.50;;;12.10;;
8986;SDS011;4529;51.360;12.474;2023-02-14T00:49:18;21.30;;;11.80;;
8986;SDS011;4529;51.360;12.474;2023-02-14T00:54:22;21.00;;;11.93;;
8986;SDS011;4529;51.360;12.474;2023-02-14T00:59:29;19.20;;;12.20;;
8986;SDS011;4529;51.360;12.474;2023-02-14T01:04:32;21.60;;;12.40;;
8986;SDS011;4529;51.360;12.474;2023-02-14T01:09:36;22.73;;;12.10;;
8986;SDS011;4529;51.360;12.474;2023-02-14T01:14:39;20.03;;;12.90;;
8986;SDS011;4529;51.360;12.474;2023-02-14T01:19:43;22.97;;;12.57;;
8986;SDS011;4529;51.360;12.474;2023-02-14T01:24:48;20.57;;;12.43;;
8986;SDS011;4529;51.360;12.474;2023-02-14T01:29:52;23.80;;;12.60;;
8986;SDS011;4529;51.360;12.474;2023-02-14T01:34:55;22.03;;;12.53;;
8986;SDS011;4529;51.360;12.474;2023-02-14T01:39:59;23.10;;;12.73;;
8986;SDS011;4529;51.360;12.474;2023-02-14T01:45:04;23.50;;;13.53;;
8986;SDS011;4529;51.360;12.474;2023-02-14T01:50:31;24.47;;;13.20;;
8986;SDS011;4529;51.360;12.474;2023-02-14T01:55:16;22.43;;;13.80;;
8986;SDS011;4529;51.360;12.474;2023-02-14T02:00:27;22.50;;;13.60;;
8986;SDS011;4529;51.360;12.474;2023-02-14T02:05:31;22.87;;;13.07;;
8986;SDS011;4529;51.360;12.474;2023-02-14T02:10:34;24.80;;;12.47;;
8986;SDS011;4529;51.360;12.474;2023-02-14T02:15:41;21.97;;;12.40;;
8986;SDS011;4529;51.360;12.474;2023-02-14T02:21:15;22.63;;;13.23;;
8986;SDS011;4529;51.360;12.474;2023-02-14T02:26:40;22.13;;;12.87;;
8986;SDS011;4529;51.360;12.474;2023-02-14T02:32:21;23.77;;;13.00;;
8986;SDS011;4529;51.360;12.474;2023-02-14T02:37:34;21.80;;;13.20;;
8986;SDS011;4529;51.360;12.474;2023-02-14T02:48:09;24.77;;;13.73;;
8986;SDS011;4529;51.360;12.474;2023-02-14T02:58:52;26.27;;;14.53;;
8986;SDS011;4529;51.360;12.474;2023-02-14T03:04:11;22.73;;;12.90;;
8986;SDS011;4529;51.360;12.474;2023-02-14T03:14:24;22.83;;;13.20;;
8986;SDS011;4529;51.360;12.474;2023-02-14T03:24:41;24.20;;;12.97;;
8986;SDS011;4529;51.360;12.474;2023-02-14T03:35:31;24.77;;;13.50;;
8986;SDS011;4529;51.360;12.474;2023-02-14T03:45:45;26.37;;;13.17;;
8986;SDS011;4529;51.360;12.474;2023-02-14T03:50:48;23.63;;;12.90;;
8986;SDS011;4529;51.360;12.474;2023-02-14T03:56:01;25.60;;;13.17;;
8986;SDS011;4529;51.360;12.474;2023-02-14T04:01:03;23.77;;;12.57;;
8986;SDS011;4529;51.360;12.474;2023-02-14T04:06:08;26.63;;;13.07;;
8986;SDS011;4529;51.360;12.474;2023-02-14T04:11:11;23.77;;;13.07;;
8986;SDS011;4529;51.360;12.474;2023-02-14T04:16:15;25.37;;;14.33;;
8986;SDS011;4529;51.360;12.474;2023-02-14T04:21:18;24.77;;;14.23;;
8986;SDS011;4529;51.360;12.474;2023-02-14T04:26:21;24.33;;;14.17;;
8986;SDS011;4529;51.360;12.474;2023-02-14T04:31:25;23.90;;;13.67;;
8986;SDS011;4529;51.360;12.474;2023-02-14T04:36:28;27.30;;;15.37;;
8986;SDS011;4529;51.360;12.474;2023-02-14T04:41:34;27.37;;;14.97;;
8986;SDS011;4529;51.360;12.474;2023-02-14T04:46:38;29.60;;;15.53;;
8986;SDS011;4529;51.360;12.474;2023-02-14T04:51:42;24.43;;;14.30;;
8986;SDS011;4529;51.360;12.474;2023-02-14T04:56:46;25.30;;;14.40;;
8986;SDS011;4529;51.360;12.474;2023-02-14T05:01:51;27.13;;;14.73;;
8986;SDS011;4529;51.360;12.474;2023-02-14T05:06:55;26.83;;;14.37;;
8986;SDS011;4529;51.360;12.474;2023-02-14T05:11:59;27.97;;;14.70;;
8986;SDS011;4529;51.360;12.474;2023-02-14T05:17:03;24.23;;;14.03;;
8986;SDS011;4529;51.360;12.474;2023-02-14T05:22:06;27.17;;;15.10;;
8986;SDS011;4529;51.360;12.474;2023-02-14T05:27:10;26.97;;;14.63;;
8986;SDS011;4529;51.360;12.474;2023-02-14T05:32:13;25.87;;;14.87;;
8986;SDS011;4529;51.360;12.474;2023-02-14T05:37:17;28.73;;;15.57;;
8986;SDS011;4529;51.360;12.474;2023-02-14T05:42:20;24.57;;;14.10;;
8986;SDS011;4529;51.360;12.474;2023-02-14T05:47:24;25.37;;;13.83;;
8986;SDS011;4529;51.360;12.474;2023-02-14T05:52:28;23.13;;;12.53;;
8986;SDS011;4529;51.360;12.474;2023-02-14T05:57:32;25.57;;;13.80;;
8986;SDS011;4529;51.360;12.474;2023-02-14T06:02:36;28.03;;;14.93;;
8986;SDS011;4529;51.360;12.474;2023-02-14T06:07:40;23.57;;;13.77;;
8986;SDS011;4529;51.360;12.474;2023-02-14T06:12:45;26.77;;;14.20;;
8986;SDS011;4529;51.360;12.474;2023-02-14T06:17:53;25.67;;;14.87;;
8986;SDS011;4529;51.360;12.474;2023-02-14T06:22:58;28.43;;;14.60;;
8986;SDS011;4529;51.360;12.474;2023-02-14T06:28:01;24.47;;;13.70;;
8986;SDS011;4529;51.360;12.474;2023-02-14T06:33:10;25.23;;;14.27;;
8986;SDS011;4529;51.360;12.474;2023-02-14T06:38:14;24.73;;;14.67;;
8986;SDS011;4529;51.360;12.474;2023-02-14T06:43:17;23.30;;;12.30;;
8986;SDS011;4529;51.360;12.474;2023-02-14T06:48:21;22.70;;;13.10;;
8986;SDS011;4529;51.360;12.474;2023-02-14T06:53:24;24.50;;;13.00;;
8986;SDS011;4529;51.360;12.474;2023-02-14T06:58:28;22.70;;;11.93;;
8986;SDS011;4529;51.360;12.474;2023-02-14T07:03:32;21.63;;;11.43;;
8986;SDS011;4529;51.360;12.474;2023-02-14T07:08:36;19.77;;;11.33;;
8986;SDS011;4529;51.360;12.474;2023-02-14T07:13:40;21.03;;;11.73;;
8986;SDS011;4529;51.360;12.474;2023-02-14T07:18:44;20.00;;;11.30;;
8986;SDS011;4529;51.360;12.474;2023-02-14T07:23:48;17.10;;;10.50;;
8986;SDS011;4529;51.360;12.474;2023-02-14T07:28:52;16.67;;;10.37;;
8986;SDS011;4529;51.360;12.474;2023-02-14T07:33:56;19.20;;;11.03;;
8986;SDS011;4529;51.360;12.474;2023-02-14T07:39:00;16.77;;;10.17;;
8986;SDS011;4529;51.360;12.474;2023-02-14T07:44:04;17.53;;;10.63;;
8986;SDS011;4529;51.360;12.474;2023-02-14T07:49:08;15.47;;;9.83;;
8986;SDS011;4529;51.360;12.474;2023-02-14T07:54:13;10.63;;;6.13;;
8986;SDS011;4529;51.360;12.474;2023-02-14T07:59:17;10.57;;;6.33;;
8986;SDS011;4529;51.360;12.474;2023-02-14T08:04:20;8.67;;;5.77;;
8986;SDS011;4529;51.360;12.474;2023-02-14T08:09:24;9.07;;;5.20;;
8986;SDS011;4529;51.360;12.474;2023-02-14T08:14:28;10.30;;;5.57;;
8986;SDS011;4529;51.360;12.474;2023-02-14T08:19:33;8.87;;;5.47;;
8986;SDS011;4529;51.360;12.474;2023-02-14T08:24:37;17.10;;;10.70;;
8986;SDS011;4529;51.360;12.474;2023-02-14T08:29:41;17.03;;;10.67;;
8986;SDS011;4529;51.360;12.474;2023-02-14T08:34:45;18.50;;;11.00;;
8986;SDS011;4529;51.360;12.474;2023-02-14T08:39:49;17.63;;;10.97;;
8986;SDS011;4529;51.360;12.474;2023-02-14T08:44:53;17.07;;;11.27;;
8986;SDS011;4529;51.360;12.474;2023-02-14T08:49:57;16.20;;;10.67;;
8986;SDS011;4529;51.360;12.474;2023-02-14T08:55:01;16.37;;;11.20;;
8986;SDS011;4529;51.360;12.474;2023-02-14T09:00:05;15.70;;;10.47;;
8986;SDS011;4529;51.360;12.474;2023-02-14T09:05:08;15.77;;;9.60;;
8986;SDS011;4529;51.360;12.474;2023-02-14T09:10:12;16.27;;;10.43;;
8986;SDS011;4529;51.360;12.474;2023-02-14T09:15:16;18.93;;;11.73;;
8986;SDS011;4529;51.360;12.474;2023-02-14T09:20:20;19.53;;;11.23;;
8986;SDS011;4529;51.360;12.474;2023-02-14T09:25:23;16.50;;;11.43;;
8986;SDS011;4529;51.360;12.474;2023-02-14T09:30:28;17.50;;;11.33;;
8986;SDS011;4529;51.360;12.474;2023-02-14T09:35:32;16.63;;;11.23;;
8986;SDS011;4529;51.360;12.474;2023-02-14T09:40:36;16.73;;;11.57;;
8986;SDS011;4529;51.360;12.474;2023-02-14T09:45:40;17.70;;;11.63;;
8986;SDS011;4529;51.360;12.474;2023-02-14T09:50:50;17.97;;;11.53;;
8986;SDS011;4529;51.360;12.474;2023-02-14T09:55:56;18.70;;;12.53;;
8986;SDS011;4529;51.360;12.474;2023-02-14T10:01:21;17.03;;;12.03;;
8986;SDS011;4529;51.360;12.474;2023-02-14T10:06:35;18.73;;;12.07;;
8986;SDS011;4529;51.360;12.474;2023-02-14T10:11:43;19.23;;;11.93;;
8986;SDS011;4529;51.360;12.474;2023-02-14T10:16:49;17.30;;;12.00;;
8986;SDS011;4529;51.360;12.474;2023-02-14T10:22:37;17.23;;;11.60;;
8986;SDS011;4529;51.360;12.474;2023-02-14T10:44:44;16.70;;;11.73;;
8986;SDS011;4529;51.360;12.474;2023-02-14T10:50:01;16.10;;;11.40;;
8986;SDS011;4529;51.360;12.474;2023-02-14T10:55:17;13.00;;;9.60;;
8986;SDS011;4529;51.360;12.474;2023-02-14T11:00:19;12.13;;;9.20;;
8986;SDS011;4529;51.360;12.474;2023-02-14T11:05:33;11.00;;;8.63;;
8986;SDS011;4529;51.360;12.474;2023-02-14T11:10:37;11.37;;;8.50;;
8986;SDS011;4529;51.360;12.474;2023-02-14T11:15:43;11.87;;;8.33;;
8986;SDS011;4529;51.360;12.474;2023-02-14T11:20:57;15.97;;;10.43;;
8986;SDS011;4529;51.360;12.474;2023-02-14T11:26:13;12.60;;;8.63;;
8986;SDS011;4529;51.360;12.474;2023-02-14T11:31:29;11.90;;;9.20;;
8986;SDS011;4529;51.360;12.474;2023-02-14T11:36:39;12.93;;;9.30;;
8986;SDS011;4529;51.360;12.474;2023-02-14T11:41:48;12.50;;;9.07;;
8986;SDS011;4529;51.360;12.474;2023-02-14T11:46:50;12.47;;;9.40;;
8986;SDS011;4529;51.360;12.474;2023-02-14T11:51:53;13.37;;;9.73;;
8986;SDS011;4529;51.360;12.474;2023-02-14T11:57:01;16.43;;;10.73;;
8986;SDS011;4529;51.360;12.474;2023-02-14T12:02:12;16.13;;;10.90;;
8986;SDS011;4529;51.360;12.474;2023-02-14T12:07:19;15.63;;;10.67;;
8986;SDS011;4529;51.360;12.474;2023-02-14T12:12:27;12.50;;;9.83;;
8986;SDS011;4529;51.360;12.474;2023-02-14T12:17:33;14.10;;;9.93;;
8986;SDS011;4529;51.360;12.474;2023-02-14T12:22:44;14.13;;;9.70;;
8986;SDS011;4529;51.360;12.474;2023-02-14T12:27:57;14.93;;;10.03;;
8986;SDS011;4529;51.360;12.474;2023-02-14T12:33:02;15.77;;;9.80;;
8986;SDS011;4529;51.360;12.474;2023-02-14T12:38:15;14.10;;;9.93;;
8986;SDS011;4529;51.360;12.474;2023-02-14T12:54:09;13.67;;;9.87;;
8986;SDS011;4529;51.360;12.474;2023-02-14T12:59:18;15.90;;;10.57;;
8986;SDS011;4529;51.360;12.474;2023-02-14T13:04:31;16.83;;;10.73;;
8986;SDS011;4529;51.360;12.474;2023-02-14T13:15:20;17.47;;;11.40;;
8986;SDS011;4529;51.360;12.474;2023-02-14T13:20:37;14.00;;;10.10;;
8986;SDS011;4529;51.360;12.474;2023-02-14T13:26:00;15.07;;;11.47;;
8986;SDS011;4529;51.360;12.474;2023-02-14T13:31:03;14.63;;;10.73;;
8986;SDS011;4529;51.360;12.474;2023-02-14T13:36:07;13.30;;;10.07;;
8986;SDS011;4529;51.360;12.474;2023-02-14T13:41:11;13.63;;;10.00;;
8986;SDS011;4529;51.360;12.474;2023-02-14T13:52:36;14.17;;;10.53;;
8986;SDS011;4529;51.360;12.474;2023-02-14T13:57:36;14.87;;;10.23;;
8986;SDS011;4529;51.360;12.474;2023-02-14T14:02:42;14.27;;;9.80;;
8986;SDS011;4529;51.360;12.474;2023-02-14T14:18:42;15.93;;;10.40;;
8986;SDS011;4529;51.360;12.474;2023-02-14T14:23:46;14.80;;;10.00;;
8986;SDS011;4529;51.360;12.474;2023-02-14T14:28:49;16.27;;;10.63;;
8986;SDS011;4529;51.360;12.474;2023-02-14T14:33:59;13.80;;;10.70;;
8986;SDS011;4529;51.360;12.474;2023-02-14T14:39:03;16.03;;;10.33;;
8986;SDS011;4529;51.360;12.474;2023-02-14T14:44:07;16.00;;;10.07;;
8986;SDS011;4529;51.360;12.474;2023-02-14T14:49:10;17.60;;;10.73;;
8986;SDS011;4529;51.360;12.474;2023-02-14T14:54:19;15.00;;;9.83;;
8986;SDS011;4529;51.360;12.474;2023-02-14T14:59:30;15.37;;;10.33;;
8986;SDS011;4529;51.360;12.474;2023-02-14T15:04:38;16.57;;;10.53;;
8986;SDS011;4529;51.360;12.474;2023-02-14T15:09:41;15.67;;;10.00;;
8986;SDS011;4529;51.360;12.474;2023-02-14T15:14:46;14.73;;;10.27;;
8986;SDS011;4529;51.360;12.474;2023-02-14T15:19:49;15.23;;;10.03;;
8986;SDS011;4529;51.360;12.474;2023-02-14T15:24:54;15.50;;;9.80;;
8986;SDS011;4529;51.360;12.474;2023-02-14T15:30:16;13.83;;;9.80;;
8986;SDS011;4529;51.360;12.474;2023-02-14T15:35:06;14.30;;;9.53;;
8986;SDS011;4529;51.360;12.474;2023-02-14T15:40:20;16.07;;;10.13;;
8986;SDS011;4529;51.360;12.474;2023-02-14T15:50:29;17.93;;;10.33;;
8986;SDS011;4529;51.360;12.474;2023-02-14T15:55:37;15.80;;;10.53;;
8986;SDS011;4529;51.360;12.474;2023-02-14T16:00:41;15.80;;;9.97;;
8986;SDS011;4529;51.360;12.474;2023-02-14T16:05:47;14.80;;;9.57;;
8986;SDS011;4529;51.360;12.474;2023-02-14T16:10:57;16.50;;;10.37;;
8986;SDS011;4529;51.360;12.474;2023-02-14T16:16:09;14.70;;;10.20;;
8986;SDS011;4529;51.360;12.474;2023-02-14T16:21:13;16.77;;;11.23;;
8986;SDS011;4529;51.360;12.474;2023-02-14T16:26:24;17.37;;;11.57;;
8986;SDS011;4529;51.360;12.474;2023-02-14T16:31:27;17.07;;;11.53;;
8986;SDS011;4529;51.360;12.474;2023-02-14T16:36:31;19.03;;;12.60;;
8986;SDS011;4529;51.360;12.474;2023-02-14T16:41:34;18.90;;;12.27;;
8986;SDS011;4529;51.360;12.474;2023-02-14T16:46:37;21.97;;;12.23;;
8986;SDS011;4529;51.360;12.474;2023-02-14T16:51:42;18.73;;;11.47;;
8986;SDS011;4529;51.360;12.474;2023-02-14T16:56:54;18.97;;;11.97;;
8986;SDS011;4529;51.360;12.474;2023-02-14T17:02:05;20.00;;;12.50;;
8986;SDS011;4529;51.360;12.474;2023-02-14T17:07:10;20.77;;;13.07;;
8986;SDS011;4529;51.360;12.474;2023-02-14T17:12:15;22.97;;;13.97;;
8986;SDS011;4529;51.360;12.474;2023-02-14T17:17:17;22.10;;;13.97;;
8986;SDS011;4529;51.360;12.474;2023-02-14T17:22:21;21.90;;;13.43;;
8986;SDS011;4529;51.360;12.474;2023-02-14T17:27:28;22.33;;;12.77;;
8986;SDS011;4529;51.360;12.474;2023-02-14T17:32:31;21.63;;;12.50;;
8986;SDS011;4529;51.360;12.474;2023-02-14T17:37:35;22.27;;;12.47;;
8986;SDS011;4529;51.360;12.474;2023-02-14T17:42:38;19.73;;;12.13;;
8986;SDS011;4529;51.360;12.474;2023-02-14T17:47:42;23.40;;;12.57;;
8986;SDS011;4529;51.360;12.474;2023-02-14T17:52:45;23.37;;;13.33;;
8986;SDS011;4529;51.360;12.474;2023-02-14T17:57:49;22.07;;;13.90;;
8986;SDS011;4529;51.360;12.474;2023-02-14T18:02:53;23.77;;;14.73;;
8986;SDS011;4529;51.360;12.474;2023-02-14T18:07:57;22.37;;;14.90;;
8986;SDS011;4529;51.360;12.474;2023-02-14T18:13:02;24.07;;;15.00;;
8986;SDS011;4529;51.360;12.474;2023-02-14T18:18:06;27.60;;;16.17;;
8986;SDS011;4529;51.360;12.474;2023-02-14T18:23:10;27.07;;;16.30;;
8986;SDS011;4529;51.360;12.474;2023-02-14T18:28:19;27.10;;;15.77;;
8986;SDS011;4529;51.360;12.474;2023-02-14T18:33:23;24.70;;;15.70;;
8986;SDS011;4529;51.360;12.474;2023-02-14T18:38:27;22.67;;;14.80;;
8986;SDS011;4529;51.360;12.474;2023-02-14T18:43:31;22.73;;;15.00;;
8986;SDS011;4529;51.360;12.474;2023-02-14T18:48:35;24.73;;;15.17;;
8986;SDS011;4529;51.360;12.474;2023-02-14T18:53:40;22.10;;;15.40;;
8986;SDS011;4529;51.360;12.474;2023-02-14T18:58:44;24.97;;;15.67;;
8986;SDS011;4529;51.360;12.474;2023-02-14T19:03:48;24.80;;;15.37;;
8986;SDS011;4529;51.360;12.474;2023-02-14T19:08:52;26.37;;;15.23;;
8986;SDS011;4529;51.360;12.474;2023-02-14T19:13:56;23.83;;;14.60;;
8986;SDS011;4529;51.360;12.474;2023-02-14T19:19:00;25.17;;;15.80;;
8986;SDS011;4529;51.360;12.474;2023-02-14T19:24:04;23.20;;;14.80;;
8986;SDS011;4529;51.360;12.474;2023-02-14T19:29:09;25.37;;;15.67;;
8986;SDS011;4529;51.360;12.474;2023-02-14T19:34:16;24.20;;;14.60;;
8986;SDS011;4529;51.360;12.474;2023-02-14T19:39:18;27.83;;;16.03;;
8986;SDS011;4529;51.360;12.474;2023-02-14T19:44:21;25.37;;;15.20;;
8986;SDS011;4529;51.360;12.474;2023-02-14T19:49:25;22.93;;;13.83;;
8986;SDS011;4529;51.360;12.474;2023-02-14T19:54:29;25.00;;;13.53;;
8986;SDS011;4529;51.360;12.474;2023-02-14T19:59:32;21.63;;;13.00;;
8986;SDS011;4529;51.360;12.474;2023-02-14T20:04:36;22.73;;;12.90;;
8986;SDS011;4529;51.360;12.474;2023-02-14T20:09:39;21.33;;;13.50;;
8986;SDS011;4529;51.360;12.474;2023-02-14T20:14:43;24.23;;;13.43;;
8986;SDS011;4529;51.360;12.474;2023-02-14T20:19:46;22.67;;;14.10;;
8986;SDS011;4529;51.360;12.474;2023-02-14T20:24:49;23.93;;;14.67;;
8986;SDS011;4529;51.360;12.474;2023-02-14T20:29:58;22.90;;;14.27;;
8986;SDS011;4529;51.360;12.474;2023-02-14T20:35:01;23.83;;;14.17;;
8986;SDS011;4529;51.360;12.474;2023-02-14T20:40:05;26.27;;;13.77;;
8986;SDS011;4529;51.360;12.474;2023-02-14T20:45:09;26.63;;;14.07;;
8986;SDS011;4529;51.360;12.474;2023-02-14T20:50:12;22.43;;;13.73;;
8986;SDS011;4529;51.360;12.474;2023-02-14T20:55:16;22.80;;;13.57;;
8986;SDS011;4529;51.360;12.474;2023-02-14T21:06:19;24.77;;;14.77;;
8986;SDS011;4529;51.360;12.474;2023-02-14T21:11:22;21.83;;;13.30;;
8986;SDS011;4529;51.360;12.474;2023-02-14T21:16:26;23.33;;;13.53;;
8986;SDS011;4529;51.360;12.474;2023-02-14T21:21:30;21.63;;;12.20;;
8986;SDS011;4529;51.360;12.474;2023-02-14T21:26:37;27.93;;;12.97;;
8986;SDS011;4529;51.360;12.474;2023-02-14T21:31:41;27.60;;;13.77;;
8986;SDS011;4529;51.360;12.474;2023-02-14T21:36:45;25.77;;;14.20;;
8986;SDS011;4529;51.360;12.474;2023-02-14T21:41:49;27.60;;;15.33;;
8986;SDS011;4529;51.360;12.474;2023-02-14T21:46:53;28.07;;;16.07;;
8986;SDS011;4529;51.360;12.474;2023-02-14T21:51:57;27.97;;;16.30;;
8986;SDS011;4529;51.360;12.474;2023-02-14T21:57:07;25.87;;;15.27;;
8986;SDS011;4529;51.360;12.474;2023-02-14T22:02:10;29.67;;;16.03;;
8986;SDS011;4529;51.360;12.474;2023-02-14T22:07:13;29.17;;;16.90;;
8986;SDS011;4529;51.360;12.474;2023-02-14T22:12:17;26.97;;;15.20;;
8986;SDS011;4529;51.360;12.474;2023-02-14T22:17:21;26.67;;;14.90;;
8986;SDS011;4529;51.360;12.474;2023-02-14T22:22:25;26.30;;;15.00;;
8986;SDS011;4529;51.360;12.474;2023-02-14T22:27:28;26.03;;;14.63;;
8986;SDS011;4529;51.360;12.474;2023-02-14T22:32:32;26.80;;;14.43;;
8986;SDS011;4529;51.360;12.474;2023-02-14T22:37:35;24.23;;;14.30;;
8986;SDS011;4529;51.360;12.474;2023-02-14T22:42:38;26.23;;;15.53;;
8986;SDS011;4529;51.360;12.474;2023-02-14T22:47:43;26.23;;;14.67;;
8986;SDS011;4529;51.360;12.474;2023-02-14T22:52:46;23.43;;;14.50;;
8986;SDS011;4529;51.360;12.474;2023-02-14T22:57:50;25.30;;;14.33;;
8986;SDS011;4529;51.360;12.474;2023-02-14T23:02:54;24.40;;;14.20;;
8986;SDS011;4529;51.360;12.474;2023-02-14T23:07:58;26.07;;;14.57;;
8986;SDS011;4529;51.360;12.474;2023-02-14T23:13:01;25.47;;;14.80;;
8986;SDS011;4529;51.360;12.474;2023-02-14T23:18:05;25.90;;;15.10;;
8986;SDS011;4529;51.360;12.474;2023-02-14T23:23:08;25.63;;;14.83;;
8986;SDS011;4529;51.360;12.474;2023-02-14T23:28:21;27.97;;;15.87;;
8986;SDS011;4529;51.360;12.474;2023-02-14T23:33:24;29.17;;;15.63;;
8986;SDS011;4529;51.360;12.474;2023-02-14T23:38:28;27.87;;;15.27;;
8986;SDS011;4529;51.360;12.474;2023-02-14T23:43:31;27.07;;;15.53;;
8986;SDS011;4529;51.360;12.474;2023-02-14T23:48:35;28.63;;;15.17;;
8986;SDS011;4529;51.360;12.474;2023-02-14T23:53:39;24.50;;;13.30;;
8986;SDS011;4529;51.360;12.474;2023-02-14T23:58:44;24.13;;;13.20;;
